sensor_id;sensor_type;location;lat;lon;timestamp;P1;durP1;ratioP1;P2;durP2;ratioP2
65686;SDS011;52406;45.078;38.986;2022-07-29T00:01:00;9.52;;;6.65;;
65686;SDS011;52406;45.078;38.986;2022-07-29T00:03:27;8.00;;;6.63;;
65686;SDS011;52406;45.078;38.986;2022-07-29T00:05:54;7.57;;;6.15;;
65686;SDS011;52406;45.078;38.986;2022-07-29T00:08:21;7.28;;;6.10;;
65686;SDS011;52406;45.078;38.986;2022-07-29T00:10:47;6.75;;;5.75;;
65686;SDS011;52406;45.078;38.986;2022-07-29T00:13:14;8.00;;;6.68;;
65686;SDS011;52406;45.078;38.986;2022-07-29T00:15:40;8.15;;;6.05;;
65686;SDS011;52406;45.078;38.986;2022-07-29T00:18:08;9.95;;;5.78;;
65686;SDS011;52406;45.078;38.986;2022-07-29T00:20:35;13.20;;;6.25;;
65686;SDS011;52406;45.078;38.986;2022-07-29T00:23:05;7.38;;;6.20;;
65686;SDS011;52406;45.078;38.986;2022-07-29T00:25:31;7.40;;;6.32;;
65686;SDS011;52406;45.078;38.986;2022-07-29T00:27:58;6.95;;;5.70;;
65686;SDS011;52406;45.078;38.986;2022-07-29T00:30:25;7.72;;;6.10;;
65686;SDS011;52406;45.078;38.986;2022-07-29T00:32:54;8.30;;;6.07;;
65686;SDS011;52406;45.078;38.986;2022-07-29T00:35:21;8.77;;;6.00;;
65686;SDS011;52406;45.078;38.986;2022-07-29T00:38:09;7.00;;;5.93;;
65686;SDS011;52406;45.078;38.986;2022-07-29T00:40:40;10.07;;;5.85;;
65686;SDS011;52406;45.078;38.986;2022-07-29T00:43:09;7.55;;;5.53;;
65686;SDS011;52406;45.078;38.986;2022-07-29T00:45:39;7.82;;;5.57;;
65686;SDS011;52406;45.078;38.986;2022-07-29T00:48:08;7.03;;;5.70;;
65686;SDS011;52406;45.078;38.986;2022-07-29T00:50:35;7.95;;;6.78;;
65686;SDS011;52406;45.078;38.986;2022-07-29T00:53:04;11.25;;;5.82;;
65686;SDS011;52406;45.078;38.986;2022-07-29T00:55:33;8.27;;;6.10;;
65686;SDS011;52406;45.078;38.986;2022-07-29T00:58:03;8.88;;;5.80;;
65686;SDS011;52406;45.078;38.986;2022-07-29T01:00:33;7.55;;;5.47;;
65686;SDS011;52406;45.078;38.986;2022-07-29T01:03:00;6.45;;;5.53;;
65686;SDS011;52406;45.078;38.986;2022-07-29T01:05:27;7.95;;;5.95;;
65686;SDS011;52406;45.078;38.986;2022-07-29T01:07:55;8.65;;;6.18;;
65686;SDS011;52406;45.078;38.986;2022-07-29T01:10:23;8.27;;;6.03;;
65686;SDS011;52406;45.078;38.986;2022-07-29T01:12:51;9.00;;;5.75;;
65686;SDS011;52406;45.078;38.986;2022-07-29T01:15:20;9.80;;;6.22;;
65686;SDS011;52406;45.078;38.986;2022-07-29T01:23:46;11.02;;;6.82;;
65686;SDS011;52406;45.078;38.986;2022-07-29T01:32:01;8.40;;;6.32;;
65686;SDS011;52406;45.078;38.986;2022-07-29T01:34:45;6.07;;;5.47;;
65686;SDS011;52406;45.078;38.986;2022-07-29T01:37:26;7.45;;;6.13;;
65686;SDS011;52406;45.078;38.986;2022-07-29T01:39:55;7.28;;;6.03;;
65686;SDS011;52406;45.078;38.986;2022-07-29T01:42:40;9.80;;;6.50;;
65686;SDS011;52406;45.078;38.986;2022-07-29T01:45:20;10.02;;;6.05;;
65686;SDS011;52406;45.078;38.986;2022-07-29T01:50:46;9.75;;;5.68;;
65686;SDS011;52406;45.078;38.986;2022-07-29T01:53:50;10.20;;;5.57;;
65686;SDS011;52406;45.078;38.986;2022-07-29T01:56:08;10.27;;;6.93;;
65686;SDS011;52406;45.078;38.986;2022-07-29T01:58:38;9.57;;;6.22;;
65686;SDS011;52406;45.078;38.986;2022-07-29T02:01:09;8.95;;;6.53;;
65686;SDS011;52406;45.078;38.986;2022-07-29T02:03:39;9.40;;;5.80;;
65686;SDS011;52406;45.078;38.986;2022-07-29T02:06:09;7.00;;;5.68;;
65686;SDS011;52406;45.078;38.986;2022-07-29T02:08:38;6.50;;;5.20;;
65686;SDS011;52406;45.078;38.986;2022-07-29T02:11:06;9.23;;;6.05;;
65686;SDS011;52406;45.078;38.986;2022-07-29T02:13:34;11.18;;;6.18;;
65686;SDS011;52406;45.078;38.986;2022-07-29T02:16:04;9.77;;;5.88;;
65686;SDS011;52406;45.078;38.986;2022-07-29T02:18:36;7.47;;;5.13;;
65686;SDS011;52406;45.078;38.986;2022-07-29T02:21:05;8.90;;;6.63;;
65686;SDS011;52406;45.078;38.986;2022-07-29T02:23:32;8.80;;;6.22;;
65686;SDS011;52406;45.078;38.986;2022-07-29T02:26:03;12.02;;;7.00;;
65686;SDS011;52406;45.078;38.986;2022-07-29T02:28:38;6.60;;;5.40;;
65686;SDS011;52406;45.078;38.986;2022-07-29T02:31:09;8.07;;;5.65;;
65686;SDS011;52406;45.078;38.986;2022-07-29T02:33:37;7.88;;;6.03;;
65686;SDS011;52406;45.078;38.986;2022-07-29T02:36:04;7.13;;;5.70;;
65686;SDS011;52406;45.078;38.986;2022-07-29T02:38:31;9.18;;;5.93;;
65686;SDS011;52406;45.078;38.986;2022-07-29T02:44:14;8.48;;;6.20;;
65686;SDS011;52406;45.078;38.986;2022-07-29T02:46:56;9.02;;;6.65;;
65686;SDS011;52406;45.078;38.986;2022-07-29T02:52:26;11.20;;;6.60;;
65686;SDS011;52406;45.078;38.986;2022-07-29T03:00:36;10.90;;;6.00;;
65686;SDS011;52406;45.078;38.986;2022-07-29T03:03:07;8.65;;;6.70;;
65686;SDS011;52406;45.078;38.986;2022-07-29T03:05:38;7.55;;;6.10;;
65686;SDS011;52406;45.078;38.986;2022-07-29T03:08:06;10.07;;;6.20;;
65686;SDS011;52406;45.078;38.986;2022-07-29T03:10:38;10.57;;;6.15;;
65686;SDS011;52406;45.078;38.986;2022-07-29T03:13:09;9.00;;;6.25;;
65686;SDS011;52406;45.078;38.986;2022-07-29T03:15:36;11.23;;;6.28;;
65686;SDS011;52406;45.078;38.986;2022-07-29T03:18:03;10.05;;;6.30;;
65686;SDS011;52406;45.078;38.986;2022-07-29T03:20:31;11.70;;;5.53;;
65686;SDS011;52406;45.078;38.986;2022-07-29T03:22:58;8.30;;;5.70;;
65686;SDS011;52406;45.078;38.986;2022-07-29T03:25:24;14.52;;;5.72;;
65686;SDS011;52406;45.078;38.986;2022-07-29T03:27:53;8.63;;;5.68;;
65686;SDS011;52406;45.078;38.986;2022-07-29T03:30:19;13.70;;;6.10;;
65686;SDS011;52406;45.078;38.986;2022-07-29T03:32:47;11.48;;;5.85;;
65686;SDS011;52406;45.078;38.986;2022-07-29T03:35:15;11.77;;;5.70;;
65686;SDS011;52406;45.078;38.986;2022-07-29T03:37:48;8.23;;;5.88;;
65686;SDS011;52406;45.078;38.986;2022-07-29T03:40:22;9.45;;;5.70;;
65686;SDS011;52406;45.078;38.986;2022-07-29T03:43:00;7.32;;;4.97;;
65686;SDS011;52406;45.078;38.986;2022-07-29T03:45:28;8.40;;;6.20;;
65686;SDS011;52406;45.078;38.986;2022-07-29T03:47:57;10.07;;;4.90;;
65686;SDS011;52406;45.078;38.986;2022-07-29T03:50:27;11.85;;;6.28;;
65686;SDS011;52406;45.078;38.986;2022-07-29T03:52:56;7.50;;;5.47;;
65686;SDS011;52406;45.078;38.986;2022-07-29T03:55:24;16.13;;;5.93;;
65686;SDS011;52406;45.078;38.986;2022-07-29T03:57:52;13.90;;;5.82;;
65686;SDS011;52406;45.078;38.986;2022-07-29T04:00:23;9.07;;;6.10;;
65686;SDS011;52406;45.078;38.986;2022-07-29T04:02:52;10.63;;;6.38;;
65686;SDS011;52406;45.078;38.986;2022-07-29T04:05:19;8.68;;;5.68;;
65686;SDS011;52406;45.078;38.986;2022-07-29T04:07:50;12.43;;;5.78;;
65686;SDS011;52406;45.078;38.986;2022-07-29T04:10:18;9.15;;;6.03;;
65686;SDS011;52406;45.078;38.986;2022-07-29T04:12:46;8.05;;;5.53;;
65686;SDS011;52406;45.078;38.986;2022-07-29T04:15:12;8.95;;;5.22;;
65686;SDS011;52406;45.078;38.986;2022-07-29T04:17:39;9.90;;;5.55;;
65686;SDS011;52406;45.078;38.986;2022-07-29T04:20:05;11.65;;;6.38;;
65686;SDS011;52406;45.078;38.986;2022-07-29T04:22:33;10.30;;;5.38;;
65686;SDS011;52406;45.078;38.986;2022-07-29T04:24:59;11.45;;;6.10;;
65686;SDS011;52406;45.078;38.986;2022-07-29T04:27:29;8.88;;;5.55;;
65686;SDS011;52406;45.078;38.986;2022-07-29T04:29:55;7.28;;;5.00;;
65686;SDS011;52406;45.078;38.986;2022-07-29T04:32:24;9.50;;;5.80;;
65686;SDS011;52406;45.078;38.986;2022-07-29T04:34:52;8.50;;;5.38;;
65686;SDS011;52406;45.078;38.986;2022-07-29T04:37:19;7.00;;;4.82;;
65686;SDS011;52406;45.078;38.986;2022-07-29T04:39:45;13.90;;;5.60;;
65686;SDS011;52406;45.078;38.986;2022-07-29T04:42:12;10.75;;;5.35;;
65686;SDS011;52406;45.078;38.986;2022-07-29T04:44:38;12.10;;;5.15;;
65686;SDS011;52406;45.078;38.986;2022-07-29T04:47:07;8.65;;;4.45;;
65686;SDS011;52406;45.078;38.986;2022-07-29T04:49:39;7.57;;;4.65;;
65686;SDS011;52406;45.078;38.986;2022-07-29T04:52:06;7.35;;;4.18;;
65686;SDS011;52406;45.078;38.986;2022-07-29T04:54:35;11.05;;;4.22;;
65686;SDS011;52406;45.078;38.986;2022-07-29T04:57:04;15.07;;;4.40;;
65686;SDS011;52406;45.078;38.986;2022-07-29T04:59:31;5.63;;;3.88;;
65686;SDS011;52406;45.078;38.986;2022-07-29T05:01:57;7.97;;;3.90;;
65686;SDS011;52406;45.078;38.986;2022-07-29T05:04:24;8.27;;;4.30;;
65686;SDS011;52406;45.078;38.986;2022-07-29T05:06:50;7.00;;;3.75;;
65686;SDS011;52406;45.078;38.986;2022-07-29T05:09:17;9.68;;;4.95;;
65686;SDS011;52406;45.078;38.986;2022-07-29T05:11:45;6.07;;;4.03;;
65686;SDS011;52406;45.078;38.986;2022-07-29T05:14:12;8.10;;;4.43;;
65686;SDS011;52406;45.078;38.986;2022-07-29T05:16:38;6.90;;;3.92;;
65686;SDS011;52406;45.078;38.986;2022-07-29T05:19:06;6.93;;;4.03;;
65686;SDS011;52406;45.078;38.986;2022-07-29T05:21:33;5.25;;;3.78;;
65686;SDS011;52406;45.078;38.986;2022-07-29T05:24:01;6.13;;;4.10;;
65686;SDS011;52406;45.078;38.986;2022-07-29T05:26:29;8.95;;;3.92;;
65686;SDS011;52406;45.078;38.986;2022-07-29T05:28:56;8.82;;;4.10;;
65686;SDS011;52406;45.078;38.986;2022-07-29T05:31:23;9.93;;;3.92;;
65686;SDS011;52406;45.078;38.986;2022-07-29T05:33:49;6.70;;;3.67;;
65686;SDS011;52406;45.078;38.986;2022-07-29T05:36:16;8.10;;;3.78;;
65686;SDS011;52406;45.078;38.986;2022-07-29T05:38:43;10.52;;;4.10;;
65686;SDS011;52406;45.078;38.986;2022-07-29T05:41:11;6.88;;;3.85;;
65686;SDS011;52406;45.078;38.986;2022-07-29T05:43:39;6.57;;;3.65;;
65686;SDS011;52406;45.078;38.986;2022-07-29T05:46:08;7.00;;;4.22;;
65686;SDS011;52406;45.078;38.986;2022-07-29T05:48:35;11.13;;;4.30;;
65686;SDS011;52406;45.078;38.986;2022-07-29T05:51:05;7.28;;;4.03;;
65686;SDS011;52406;45.078;38.986;2022-07-29T05:53:35;5.55;;;4.10;;
65686;SDS011;52406;45.078;38.986;2022-07-29T05:56:05;6.45;;;4.07;;
65686;SDS011;52406;45.078;38.986;2022-07-29T05:58:36;7.18;;;3.38;;
65686;SDS011;52406;45.078;38.986;2022-07-29T06:01:03;7.07;;;3.50;;
65686;SDS011;52406;45.078;38.986;2022-07-29T06:03:29;5.90;;;3.40;;
65686;SDS011;52406;45.078;38.986;2022-07-29T06:05:56;6.55;;;3.80;;
65686;SDS011;52406;45.078;38.986;2022-07-29T06:08:23;8.82;;;4.10;;
65686;SDS011;52406;45.078;38.986;2022-07-29T06:10:49;6.50;;;3.83;;
65686;SDS011;52406;45.078;38.986;2022-07-29T06:13:16;6.05;;;3.83;;
65686;SDS011;52406;45.078;38.986;2022-07-29T06:15:42;9.88;;;3.90;;
65686;SDS011;52406;45.078;38.986;2022-07-29T06:18:09;6.43;;;3.55;;
65686;SDS011;52406;45.078;38.986;2022-07-29T06:20:38;7.43;;;3.60;;
65686;SDS011;52406;45.078;38.986;2022-07-29T06:23:05;6.28;;;3.30;;
65686;SDS011;52406;45.078;38.986;2022-07-29T06:25:35;7.18;;;3.78;;
65686;SDS011;52406;45.078;38.986;2022-07-29T06:28:05;5.38;;;3.20;;
65686;SDS011;52406;45.078;38.986;2022-07-29T06:30:32;4.07;;;3.10;;
65686;SDS011;52406;45.078;38.986;2022-07-29T06:32:59;6.90;;;3.45;;
65686;SDS011;52406;45.078;38.986;2022-07-29T06:35:27;6.10;;;3.15;;
65686;SDS011;52406;45.078;38.986;2022-07-29T06:37:55;6.97;;;3.28;;
65686;SDS011;52406;45.078;38.986;2022-07-29T06:40:22;5.22;;;3.40;;
65686;SDS011;52406;45.078;38.986;2022-07-29T06:43:07;11.52;;;3.85;;
65686;SDS011;52406;45.078;38.986;2022-07-29T06:45:34;6.10;;;3.08;;
65686;SDS011;52406;45.078;38.986;2022-07-29T06:48:01;6.18;;;3.40;;
65686;SDS011;52406;45.078;38.986;2022-07-29T06:50:30;9.15;;;3.67;;
65686;SDS011;52406;45.078;38.986;2022-07-29T06:52:58;10.00;;;4.03;;
65686;SDS011;52406;45.078;38.986;2022-07-29T06:55:25;9.90;;;3.80;;
65686;SDS011;52406;45.078;38.986;2022-07-29T06:57:52;5.85;;;3.25;;
65686;SDS011;52406;45.078;38.986;2022-07-29T07:00:18;4.70;;;3.22;;
65686;SDS011;52406;45.078;38.986;2022-07-29T07:02:46;6.70;;;3.30;;
65686;SDS011;52406;45.078;38.986;2022-07-29T07:05:12;8.70;;;3.30;;
65686;SDS011;52406;45.078;38.986;2022-07-29T07:07:42;9.82;;;3.40;;
65686;SDS011;52406;45.078;38.986;2022-07-29T07:10:08;4.93;;;3.10;;
65686;SDS011;52406;45.078;38.986;2022-07-29T07:12:38;6.57;;;2.80;;
65686;SDS011;52406;45.078;38.986;2022-07-29T07:15:08;12.68;;;3.22;;
65686;SDS011;52406;45.078;38.986;2022-07-29T07:17:37;7.25;;;2.90;;
65686;SDS011;52406;45.078;38.986;2022-07-29T07:20:05;5.07;;;2.80;;
65686;SDS011;52406;45.078;38.986;2022-07-29T07:22:32;4.50;;;2.60;;
65686;SDS011;52406;45.078;38.986;2022-07-29T07:24:59;5.30;;;2.70;;
65686;SDS011;52406;45.078;38.986;2022-07-29T07:27:26;5.07;;;3.35;;
65686;SDS011;52406;45.078;38.986;2022-07-29T07:29:53;9.02;;;3.00;;
65686;SDS011;52406;45.078;38.986;2022-07-29T07:32:20;5.20;;;2.38;;
65686;SDS011;52406;45.078;38.986;2022-07-29T07:34:47;11.10;;;2.75;;
65686;SDS011;52406;45.078;38.986;2022-07-29T07:37:14;7.78;;;2.70;;
65686;SDS011;52406;45.078;38.986;2022-07-29T07:39:41;11.52;;;2.90;;
65686;SDS011;52406;45.078;38.986;2022-07-29T07:42:10;5.22;;;2.35;;
65686;SDS011;52406;45.078;38.986;2022-07-29T07:44:39;5.43;;;2.78;;
65686;SDS011;52406;45.078;38.986;2022-07-29T07:47:08;6.00;;;3.03;;
65686;SDS011;52406;45.078;38.986;2022-07-29T07:49:35;5.45;;;2.53;;
65686;SDS011;52406;45.078;38.986;2022-07-29T07:52:02;5.40;;;2.75;;
65686;SDS011;52406;45.078;38.986;2022-07-29T07:54:29;7.18;;;3.05;;
65686;SDS011;52406;45.078;38.986;2022-07-29T07:56:56;6.13;;;2.65;;
65686;SDS011;52406;45.078;38.986;2022-07-29T07:59:23;4.70;;;2.72;;
65686;SDS011;52406;45.078;38.986;2022-07-29T08:01:50;4.18;;;2.70;;
65686;SDS011;52406;45.078;38.986;2022-07-29T08:04:17;5.70;;;3.10;;
65686;SDS011;52406;45.078;38.986;2022-07-29T08:06:44;4.15;;;2.30;;
65686;SDS011;52406;45.078;38.986;2022-07-29T08:09:15;7.40;;;2.75;;
65686;SDS011;52406;45.078;38.986;2022-07-29T08:11:44;6.50;;;2.90;;
65686;SDS011;52406;45.078;38.986;2022-07-29T08:14:10;6.15;;;2.80;;
65686;SDS011;52406;45.078;38.986;2022-07-29T08:16:37;4.47;;;2.60;;
65686;SDS011;52406;45.078;38.986;2022-07-29T08:19:04;7.05;;;2.60;;
65686;SDS011;52406;45.078;38.986;2022-07-29T08:21:51;4.30;;;2.45;;
65686;SDS011;52406;45.078;38.986;2022-07-29T08:24:19;3.78;;;2.45;;
65686;SDS011;52406;45.078;38.986;2022-07-29T08:27:05;5.15;;;2.50;;
65686;SDS011;52406;45.078;38.986;2022-07-29T08:29:31;4.47;;;2.80;;
65686;SDS011;52406;45.078;38.986;2022-07-29T08:31:58;4.75;;;2.83;;
65686;SDS011;52406;45.078;38.986;2022-07-29T08:34:25;3.65;;;2.60;;
65686;SDS011;52406;45.078;38.986;2022-07-29T08:36:52;7.35;;;3.13;;
65686;SDS011;52406;45.078;38.986;2022-07-29T08:39:19;3.92;;;2.80;;
65686;SDS011;52406;45.078;38.986;2022-07-29T08:41:46;4.72;;;2.88;;
65686;SDS011;52406;45.078;38.986;2022-07-29T08:44:14;3.53;;;2.50;;
65686;SDS011;52406;45.078;38.986;2022-07-29T08:46:42;3.47;;;2.30;;
65686;SDS011;52406;45.078;38.986;2022-07-29T08:49:10;4.60;;;2.83;;
65686;SDS011;52406;45.078;38.986;2022-07-29T08:51:38;4.95;;;2.65;;
65686;SDS011;52406;45.078;38.986;2022-07-29T08:54:08;4.95;;;2.70;;
65686;SDS011;52406;45.078;38.986;2022-07-29T08:56:36;5.07;;;2.90;;
65686;SDS011;52406;45.078;38.986;2022-07-29T08:59:12;7.38;;;2.90;;
65686;SDS011;52406;45.078;38.986;2022-07-29T09:01:39;5.22;;;2.83;;
65686;SDS011;52406;45.078;38.986;2022-07-29T09:04:10;4.20;;;2.30;;
65686;SDS011;52406;45.078;38.986;2022-07-29T09:06:42;3.83;;;2.58;;
65686;SDS011;52406;45.078;38.986;2022-07-29T09:09:11;4.60;;;2.40;;
65686;SDS011;52406;45.078;38.986;2022-07-29T09:11:46;7.50;;;2.08;;
65686;SDS011;52406;45.078;38.986;2022-07-29T09:14:13;3.33;;;2.22;;
65686;SDS011;52406;45.078;38.986;2022-07-29T09:16:47;2.90;;;2.30;;
65686;SDS011;52406;45.078;38.986;2022-07-29T09:21:59;3.23;;;2.43;;
65686;SDS011;52406;45.078;38.986;2022-07-29T09:24:35;4.63;;;2.30;;
65686;SDS011;52406;45.078;38.986;2022-07-29T09:27:11;8.05;;;2.35;;
65686;SDS011;52406;45.078;38.986;2022-07-29T09:30:02;3.33;;;2.17;;
65686;SDS011;52406;45.078;38.986;2022-07-29T09:32:29;6.30;;;2.38;;
65686;SDS011;52406;45.078;38.986;2022-07-29T09:37:46;3.35;;;2.30;;
65686;SDS011;52406;45.078;38.986;2022-07-29T09:40:14;4.75;;;2.47;;
65686;SDS011;52406;45.078;38.986;2022-07-29T09:42:43;4.05;;;2.45;;
65686;SDS011;52406;45.078;38.986;2022-07-29T09:45:12;3.65;;;2.90;;
65686;SDS011;52406;45.078;38.986;2022-07-29T09:47:51;2.63;;;2.22;;
65686;SDS011;52406;45.078;38.986;2022-07-29T09:50:18;7.35;;;2.25;;
65686;SDS011;52406;45.078;38.986;2022-07-29T09:52:51;2.85;;;2.00;;
65686;SDS011;52406;45.078;38.986;2022-07-29T09:55:21;6.03;;;2.28;;
65686;SDS011;52406;45.078;38.986;2022-07-29T09:57:51;4.72;;;2.30;;
65686;SDS011;52406;45.078;38.986;2022-07-29T10:00:19;4.82;;;2.60;;
65686;SDS011;52406;45.078;38.986;2022-07-29T10:02:48;7.15;;;2.40;;
65686;SDS011;52406;45.078;38.986;2022-07-29T10:05:23;3.42;;;2.28;;
65686;SDS011;52406;45.078;38.986;2022-07-29T10:07:55;7.95;;;2.33;;
65686;SDS011;52406;45.078;38.986;2022-07-29T10:10:27;5.15;;;2.40;;
65686;SDS011;52406;45.078;38.986;2022-07-29T10:13:05;2.70;;;2.28;;
65686;SDS011;52406;45.078;38.986;2022-07-29T10:15:35;2.70;;;2.28;;
65686;SDS011;52406;45.078;38.986;2022-07-29T10:18:05;3.00;;;2.10;;
65686;SDS011;52406;45.078;38.986;2022-07-29T10:20:33;2.63;;;2.22;;
65686;SDS011;52406;45.078;38.986;2022-07-29T10:23:00;3.22;;;2.45;;
65686;SDS011;52406;45.078;38.986;2022-07-29T10:25:27;2.95;;;2.15;;
65686;SDS011;52406;45.078;38.986;2022-07-29T10:27:54;4.53;;;2.10;;
65686;SDS011;52406;45.078;38.986;2022-07-29T10:30:21;4.00;;;1.98;;
65686;SDS011;52406;45.078;38.986;2022-07-29T10:46:34;2.63;;;2.00;;
65686;SDS011;52406;45.078;38.986;2022-07-29T10:51:51;3.28;;;2.17;;
65686;SDS011;52406;45.078;38.986;2022-07-29T10:54:19;3.03;;;2.10;;
65686;SDS011;52406;45.078;38.986;2022-07-29T10:57:11;5.43;;;2.25;;
65686;SDS011;52406;45.078;38.986;2022-07-29T10:59:41;4.80;;;2.28;;
65686;SDS011;52406;45.078;38.986;2022-07-29T11:02:59;4.70;;;2.00;;
65686;SDS011;52406;45.078;38.986;2022-07-29T11:10:53;6.22;;;2.13;;
65686;SDS011;52406;45.078;38.986;2022-07-29T11:16:09;2.28;;;1.90;;
65686;SDS011;52406;45.078;38.986;2022-07-29T11:18:36;3.28;;;2.40;;
65686;SDS011;52406;45.078;38.986;2022-07-29T11:21:35;7.30;;;2.40;;
65686;SDS011;52406;45.078;38.986;2022-07-29T11:24:16;3.75;;;2.30;;
65686;SDS011;52406;45.078;38.986;2022-07-29T11:27:10;4.55;;;2.25;;
65686;SDS011;52406;45.078;38.986;2022-07-29T11:32:35;3.83;;;2.42;;
65686;SDS011;52406;45.078;38.986;2022-07-29T11:37:42;7.40;;;2.30;;
65686;SDS011;52406;45.078;38.986;2022-07-29T11:40:10;4.38;;;2.30;;
65686;SDS011;52406;45.078;38.986;2022-07-29T11:42:39;3.10;;;2.35;;
65686;SDS011;52406;45.078;38.986;2022-07-29T11:45:08;6.03;;;2.28;;
65686;SDS011;52406;45.078;38.986;2022-07-29T11:47:37;3.40;;;2.15;;
65686;SDS011;52406;45.078;38.986;2022-07-29T11:50:10;6.57;;;2.28;;
65686;SDS011;52406;45.078;38.986;2022-07-29T11:52:44;2.90;;;2.42;;
65686;SDS011;52406;45.078;38.986;2022-07-29T11:55:14;6.03;;;2.40;;
65686;SDS011;52406;45.078;38.986;2022-07-29T11:57:48;4.20;;;2.50;;
65686;SDS011;52406;45.078;38.986;2022-07-29T12:02:51;4.70;;;2.40;;
65686;SDS011;52406;45.078;38.986;2022-07-29T12:05:21;3.63;;;2.47;;
65686;SDS011;52406;45.078;38.986;2022-07-29T12:07:58;6.35;;;2.55;;
65686;SDS011;52406;45.078;38.986;2022-07-29T12:10:34;4.25;;;2.33;;
65686;SDS011;52406;45.078;38.986;2022-07-29T12:13:01;3.83;;;2.30;;
65686;SDS011;52406;45.078;38.986;2022-07-29T12:15:30;4.65;;;2.10;;
65686;SDS011;52406;45.078;38.986;2022-07-29T12:18:09;4.43;;;2.53;;
65686;SDS011;52406;45.078;38.986;2022-07-29T12:23:10;2.85;;;2.00;;
65686;SDS011;52406;45.078;38.986;2022-07-29T12:25:41;3.13;;;2.30;;
65686;SDS011;52406;45.078;38.986;2022-07-29T12:28:11;4.82;;;2.28;;
65686;SDS011;52406;45.078;38.986;2022-07-29T12:30:45;3.13;;;2.30;;
65686;SDS011;52406;45.078;38.986;2022-07-29T12:35:44;2.72;;;2.20;;
65686;SDS011;52406;45.078;38.986;2022-07-29T12:38:16;2.40;;;1.98;;
65686;SDS011;52406;45.078;38.986;2022-07-29T12:40:44;7.07;;;2.40;;
65686;SDS011;52406;45.078;38.986;2022-07-29T12:43:15;4.45;;;2.30;;
65686;SDS011;52406;45.078;38.986;2022-07-29T12:45:47;2.72;;;2.15;;
65686;SDS011;52406;45.078;38.986;2022-07-29T12:48:16;7.20;;;3.45;;
65686;SDS011;52406;45.078;38.986;2022-07-29T12:50:53;3.50;;;2.50;;
65686;SDS011;52406;45.078;38.986;2022-07-29T12:53:23;4.53;;;2.67;;
65686;SDS011;52406;45.078;38.986;2022-07-29T12:55:50;4.15;;;2.30;;
65686;SDS011;52406;45.078;38.986;2022-07-29T12:58:34;4.18;;;2.20;;
65686;SDS011;52406;45.078;38.986;2022-07-29T13:01:04;4.50;;;1.92;;
65686;SDS011;52406;45.078;38.986;2022-07-29T13:03:50;2.47;;;2.25;;
65686;SDS011;52406;45.078;38.986;2022-07-29T13:09:15;3.08;;;2.15;;
65686;SDS011;52406;45.078;38.986;2022-07-29T13:14:33;4.35;;;2.10;;
65686;SDS011;52406;45.078;38.986;2022-07-29T13:17:03;2.25;;;1.90;;
65686;SDS011;52406;45.078;38.986;2022-07-29T13:22:14;3.60;;;2.10;;
65686;SDS011;52406;45.078;38.986;2022-07-29T13:24:57;3.05;;;1.98;;
65686;SDS011;52406;45.078;38.986;2022-07-29T13:27:29;2.17;;;1.90;;
65686;SDS011;52406;45.078;38.986;2022-07-29T13:30:03;6.53;;;2.00;;
65686;SDS011;52406;45.078;38.986;2022-07-29T13:32:31;4.75;;;2.33;;
65686;SDS011;52406;45.078;38.986;2022-07-29T13:35:03;3.58;;;2.17;;
65686;SDS011;52406;45.078;38.986;2022-07-29T13:37:35;4.22;;;2.13;;
65686;SDS011;52406;45.078;38.986;2022-07-29T13:40:06;3.45;;;2.15;;
65686;SDS011;52406;45.078;38.986;2022-07-29T13:42:36;2.97;;;2.03;;
65686;SDS011;52406;45.078;38.986;2022-07-29T13:45:07;3.08;;;1.95;;
65686;SDS011;52406;45.078;38.986;2022-07-29T13:47:34;3.70;;;1.88;;
65686;SDS011;52406;45.078;38.986;2022-07-29T13:50:04;2.65;;;2.22;;
65686;SDS011;52406;45.078;38.986;2022-07-29T13:52:32;3.90;;;2.00;;
65686;SDS011;52406;45.078;38.986;2022-07-29T13:55:00;4.10;;;1.80;;
65686;SDS011;52406;45.078;38.986;2022-07-29T13:57:30;2.88;;;1.92;;
65686;SDS011;52406;45.078;38.986;2022-07-29T13:59:57;4.28;;;2.17;;
65686;SDS011;52406;45.078;38.986;2022-07-29T14:02:25;3.10;;;1.92;;
65686;SDS011;52406;45.078;38.986;2022-07-29T14:04:52;3.65;;;1.60;;
65686;SDS011;52406;45.078;38.986;2022-07-29T14:07:20;3.38;;;2.00;;
65686;SDS011;52406;45.078;38.986;2022-07-29T14:09:48;2.35;;;1.90;;
65686;SDS011;52406;45.078;38.986;2022-07-29T14:12:14;2.90;;;1.90;;
65686;SDS011;52406;45.078;38.986;2022-07-29T14:14:41;2.67;;;2.00;;
65686;SDS011;52406;45.078;38.986;2022-07-29T14:17:08;3.88;;;1.90;;
65686;SDS011;52406;45.078;38.986;2022-07-29T14:19:35;3.42;;;1.90;;
65686;SDS011;52406;45.078;38.986;2022-07-29T14:22:06;6.65;;;2.15;;
65686;SDS011;52406;45.078;38.986;2022-07-29T14:24:37;3.72;;;1.85;;
65686;SDS011;52406;45.078;38.986;2022-07-29T14:27:06;3.45;;;1.90;;
65686;SDS011;52406;45.078;38.986;2022-07-29T14:29:35;4.07;;;1.77;;
65686;SDS011;52406;45.078;38.986;2022-07-29T14:32:03;2.63;;;1.75;;
65686;SDS011;52406;45.078;38.986;2022-07-29T14:34:33;3.45;;;1.98;;
65686;SDS011;52406;45.078;38.986;2022-07-29T14:37:04;3.67;;;1.88;;
65686;SDS011;52406;45.078;38.986;2022-07-29T14:39:31;3.58;;;1.77;;
65686;SDS011;52406;45.078;38.986;2022-07-29T14:42:01;3.03;;;1.67;;
65686;SDS011;52406;45.078;38.986;2022-07-29T14:44:28;3.15;;;1.77;;
65686;SDS011;52406;45.078;38.986;2022-07-29T14:46:57;4.47;;;1.80;;
65686;SDS011;52406;45.078;38.986;2022-07-29T14:49:25;3.88;;;1.85;;
65686;SDS011;52406;45.078;38.986;2022-07-29T14:51:55;3.05;;;2.00;;
65686;SDS011;52406;45.078;38.986;2022-07-29T14:54:21;3.22;;;2.10;;
65686;SDS011;52406;45.078;38.986;2022-07-29T14:56:48;3.67;;;2.00;;
65686;SDS011;52406;45.078;38.986;2022-07-29T14:59:16;2.78;;;1.77;;
65686;SDS011;52406;45.078;38.986;2022-07-29T15:01:45;3.10;;;1.95;;
65686;SDS011;52406;45.078;38.986;2022-07-29T15:04:18;5.25;;;2.35;;
65686;SDS011;52406;45.078;38.986;2022-07-29T15:06:45;2.70;;;1.92;;
65686;SDS011;52406;45.078;38.986;2022-07-29T15:09:11;6.10;;;2.20;;
65686;SDS011;52406;45.078;38.986;2022-07-29T15:11:38;3.92;;;1.70;;
65686;SDS011;52406;45.078;38.986;2022-07-29T15:14:05;5.10;;;2.15;;
65686;SDS011;52406;45.078;38.986;2022-07-29T15:16:32;4.68;;;1.85;;
65686;SDS011;52406;45.078;38.986;2022-07-29T15:19:01;4.28;;;1.55;;
65686;SDS011;52406;45.078;38.986;2022-07-29T15:21:29;5.55;;;1.90;;
65686;SDS011;52406;45.078;38.986;2022-07-29T15:23:55;6.20;;;2.00;;
65686;SDS011;52406;45.078;38.986;2022-07-29T15:26:22;8.02;;;2.53;;
65686;SDS011;52406;45.078;38.986;2022-07-29T15:28:49;4.93;;;2.00;;
65686;SDS011;52406;45.078;38.986;2022-07-29T15:31:15;4.30;;;1.88;;
65686;SDS011;52406;45.078;38.986;2022-07-29T15:33:44;2.15;;;1.90;;
65686;SDS011;52406;45.078;38.986;2022-07-29T15:36:11;5.88;;;2.10;;
65686;SDS011;52406;45.078;38.986;2022-07-29T15:38:40;9.88;;;2.08;;
65686;SDS011;52406;45.078;38.986;2022-07-29T15:41:07;3.97;;;1.75;;
65686;SDS011;52406;45.078;38.986;2022-07-29T15:43:34;4.40;;;2.20;;
65686;SDS011;52406;45.078;38.986;2022-07-29T15:46:01;5.55;;;1.95;;
65686;SDS011;52406;45.078;38.986;2022-07-29T15:48:46;4.68;;;2.00;;
65686;SDS011;52406;45.078;38.986;2022-07-29T15:51:14;4.28;;;2.17;;
65686;SDS011;52406;45.078;38.986;2022-07-29T15:53:41;7.40;;;2.92;;
65686;SDS011;52406;45.078;38.986;2022-07-29T15:56:07;2.88;;;2.22;;
65686;SDS011;52406;45.078;38.986;2022-07-29T15:58:38;3.38;;;2.25;;
65686;SDS011;52406;45.078;38.986;2022-07-29T16:01:05;3.83;;;2.28;;
65686;SDS011;52406;45.078;38.986;2022-07-29T16:03:32;4.90;;;2.60;;
65686;SDS011;52406;45.078;38.986;2022-07-29T16:05:59;3.25;;;2.25;;